Information Last Ob Photographs Calibration Meteogram Network Table Neighbors Monthly Summaries Observation History Wind Roses Custom Wind Roses Data Calendar Satellite Cloud Product Download

Most Recent Observation

This application displays the last observation received by the IEM from this site. The time stamp is in America/Chicago timezone.

Observation Local Time25 May 2022, 2:53 AM
Observation UTC Time2022-05-25T07:53:00Z
Air Temp [F]50
Maximum Air Temperature [F]51.1
Minimum Air Temperature [F]50
Dew Point [F]48
Wind DirectionENE (70 degrees)
Wind Speed [knots]11
Altimeter [inches]29.89
Raw Observation/ProductKAMW 250753Z AUTO 07011G20KT 5SM BR OVC008 10/09 A2989 RMK AO2 RAE19 CIG 006V012 SLP119 T01000089 PNO $

This data was provided by a JSON(P) webservice. You can find more JSON services.